createdAt,value
2019-03-01T00:00:58.177Z,3.62
2019-03-01T00:03:24.369Z,3.37
2019-03-01T00:05:50.542Z,4.05
2019-03-01T00:08:16.704Z,3.70
2019-03-01T00:10:42.906Z,4.10
2019-03-01T00:13:09.156Z,3.50
2019-03-01T00:15:35.329Z,3.75
2019-03-01T00:18:01.552Z,3.20
2019-03-01T00:20:27.730Z,3.12
2019-03-01T00:22:53.967Z,3.62
2019-03-01T00:25:20.183Z,4.10
2019-03-01T00:27:46.348Z,4.12
2019-03-01T00:30:12.515Z,3.55
2019-03-01T00:32:38.714Z,3.62
2019-03-01T00:35:04.900Z,3.72
2019-03-01T00:37:31.076Z,4.08
2019-03-01T00:39:57.259Z,4.30
2019-03-01T00:42:23.427Z,3.65
2019-03-01T00:44:49.598Z,3.35
2019-03-01T00:47:15.769Z,3.70
2019-03-01T00:49:41.937Z,3.75
2019-03-01T00:52:08.135Z,3.52
2019-03-01T00:54:34.337Z,3.80
2019-03-01T00:57:00.513Z,3.40
2019-03-01T00:59:26.712Z,3.42
2019-03-01T01:01:52.891Z,3.42
2019-03-01T01:04:19.148Z,3.42
2019-03-01T01:06:45.436Z,3.50
2019-03-01T01:09:11.665Z,3.45
2019-03-01T01:14:21.674Z,3.80
2019-03-01T01:16:47.882Z,3.35
2019-03-01T01:19:14.053Z,3.12
2019-03-01T01:21:40.218Z,3.42
2019-03-01T01:24:06.423Z,4.28
2019-03-01T01:26:32.604Z,3.90
2019-03-01T01:28:58.784Z,3.15
2019-03-01T01:31:24.987Z,3.50
2019-03-01T01:33:51.220Z,3.37
2019-03-01T01:36:17.384Z,3.50
2019-03-01T01:38:43.571Z,3.20
2019-03-01T01:41:09.748Z,3.30
2019-03-01T01:43:36.016Z,3.20
2019-03-01T01:46:02.192Z,3.60
2019-03-01T01:48:28.394Z,3.50
2019-03-01T01:50:54.562Z,3.70
2019-03-01T01:53:20.736Z,4.03
2019-03-01T01:55:46.946Z,3.50
2019-03-01T01:58:13.123Z,3.40
2019-03-01T02:00:39.296Z,3.80
2019-03-01T02:03:05.584Z,3.27
2019-03-01T02:05:31.752Z,3.83
2019-03-01T02:07:57.928Z,3.52
2019-03-01T02:10:24.151Z,3.95
2019-03-01T02:12:50.363Z,3.72
2019-03-01T02:15:16.532Z,3.20
2019-03-01T02:17:42.711Z,3.33
2019-03-01T02:20:08.880Z,3.50
2019-03-01T02:22:35.111Z,3.40
2019-03-01T02:25:01.323Z,3.72
2019-03-01T02:27:27.501Z,3.55
2019-03-01T02:29:53.719Z,3.75
2019-03-01T02:32:19.895Z,3.52
2019-03-01T02:34:46.062Z,3.65
2019-03-01T02:37:12.271Z,3.58
2019-03-01T02:39:38.446Z,3.52
2019-03-01T02:42:04.625Z,3.33
2019-03-01T02:44:30.843Z,3.60
2019-03-01T02:46:57.045Z,3.35
2019-03-01T02:49:23.203Z,3.60
2019-03-01T02:51:49.555Z,3.15
2019-03-01T02:54:15.754Z,3.20
2019-03-01T02:56:41.940Z,3.98
2019-03-01T02:59:08.131Z,3.90
2019-03-01T03:01:34.315Z,4.08
2019-03-01T03:04:00.564Z,3.50
2019-03-01T03:06:26.767Z,3.22
2019-03-01T03:08:52.955Z,3.55
2019-03-01T03:11:19.129Z,3.10
2019-03-01T03:13:45.331Z,3.50
2019-03-01T03:16:11.492Z,4.17
2019-03-01T03:18:37.686Z,3.45
2019-03-01T03:21:03.855Z,3.98
2019-03-01T03:23:30.100Z,3.85
2019-03-01T03:25:56.293Z,3.58
2019-03-01T03:28:22.479Z,4.25
2019-03-01T03:30:48.687Z,3.70
2019-03-01T03:33:14.889Z,3.20
2019-03-01T03:35:41.041Z,3.70
2019-03-01T03:38:07.204Z,4.15
2019-03-01T03:40:33.397Z,3.90
2019-03-01T03:42:59.619Z,4.08
2019-03-01T03:45:25.798Z,4.20
2019-03-01T03:47:52.012Z,3.75
2019-03-01T03:50:18.158Z,4.37
2019-03-01T03:52:44.379Z,3.92
2019-03-01T03:55:10.540Z,3.95
2019-03-01T03:57:36.734Z,3.52
2019-03-01T04:00:02.910Z,3.42
2019-03-01T04:02:29.150Z,3.90
2019-03-01T04:04:55.327Z,4.35
2019-03-01T04:07:21.549Z,4.22
2019-03-01T04:09:47.725Z,3.05
2019-03-01T04:12:13.898Z,3.20
2019-03-01T04:14:40.092Z,3.60
2019-03-01T04:17:06.280Z,3.55
2019-03-01T04:19:32.444Z,3.72
2019-03-01T04:21:58.634Z,3.77
2019-03-01T04:24:24.808Z,3.47
2019-03-01T04:26:50.988Z,3.95
2019-03-01T04:29:17.178Z,3.42
2019-03-01T04:31:43.355Z,3.98
2019-03-01T04:34:09.620Z,3.87
2019-03-01T04:36:35.813Z,3.60
2019-03-01T04:39:01.984Z,3.77
2019-03-01T04:41:28.158Z,3.55
2019-03-01T04:43:54.368Z,3.75
2019-03-01T04:46:20.546Z,3.67
2019-03-01T04:48:46.717Z,3.60
2019-03-01T04:51:12.914Z,4.10
2019-03-01T04:53:39.146Z,4.60
2019-03-01T04:56:05.312Z,3.80
2019-03-01T04:58:31.506Z,5.03
2019-03-01T05:00:57.679Z,3.98
2019-03-01T05:03:23.858Z,5.42
2019-03-01T05:05:50.068Z,4.53
2019-03-01T05:08:16.231Z,4.25
2019-03-01T05:10:43.315Z,5.40
2019-03-01T05:13:09.628Z,4.55
2019-03-01T05:15:35.804Z,4.60
2019-03-01T05:18:01.978Z,4.15
2019-03-01T05:20:30.479Z,4.22
2019-03-01T05:22:56.251Z,4.10
2019-03-01T05:25:22.439Z,4.55
2019-03-01T05:27:48.632Z,5.12
2019-03-01T05:30:14.886Z,5.37
2019-03-01T05:32:41.125Z,5.80
2019-03-01T05:35:07.337Z,5.22
2019-03-01T05:37:33.508Z,5.28
2019-03-01T05:39:59.673Z,4.72
2019-03-01T05:42:25.916Z,5.83
2019-03-01T05:44:52.083Z,5.53
2019-03-01T05:47:18.256Z,4.62
2019-03-01T05:49:44.450Z,4.80
2019-03-01T05:52:10.876Z,5.05
2019-03-01T05:54:37.372Z,5.20
2019-03-01T05:57:03.571Z,4.62
2019-03-01T05:59:29.741Z,5.42
2019-03-01T06:01:55.912Z,4.97
2019-03-01T06:04:22.125Z,5.60
2019-03-01T06:06:48.300Z,5.35
2019-03-01T06:09:14.468Z,4.72
2019-03-01T06:11:40.687Z,5.08
2019-03-01T06:14:06.864Z,5.08
2019-03-01T06:16:33.064Z,5.22
2019-03-01T06:18:59.247Z,4.83
2019-03-01T06:21:25.435Z,5.03
2019-03-01T06:23:51.688Z,4.50
2019-03-01T06:26:17.880Z,4.03
2019-03-01T06:28:44.046Z,5.37
2019-03-01T06:31:10.211Z,4.28
2019-03-01T06:33:36.428Z,4.75
2019-03-01T06:36:02.609Z,4.22
2019-03-01T06:38:28.791Z,5.10
2019-03-01T06:40:54.991Z,4.80
2019-03-01T06:43:21.209Z,4.42
2019-03-01T06:45:47.402Z,4.58
2019-03-01T06:48:13.583Z,4.83
2019-03-01T06:50:39.748Z,4.45
2019-03-01T06:53:06.024Z,5.92
2019-03-01T06:55:32.223Z,4.75
2019-03-01T06:57:58.405Z,4.92
2019-03-01T07:00:24.579Z,4.30
2019-03-01T07:02:50.874Z,5.00
2019-03-01T07:05:17.051Z,4.65
2019-03-01T07:07:43.228Z,3.52
2019-03-01T07:10:09.423Z,4.05
2019-03-01T07:12:35.651Z,4.42
2019-03-01T07:15:01.825Z,5.00
2019-03-01T07:17:28.023Z,4.35
2019-03-01T07:19:54.198Z,4.12
2019-03-01T07:22:20.472Z,3.98
2019-03-01T07:24:46.675Z,4.47
2019-03-01T07:27:12.848Z,3.95
2019-03-01T07:29:39.012Z,5.05
2019-03-01T07:32:05.214Z,4.70
2019-03-01T07:34:31.384Z,4.72
2019-03-01T07:36:57.883Z,4.17
2019-03-01T07:39:24.079Z,4.50
2019-03-01T07:41:50.300Z,3.92
2019-03-01T07:44:16.520Z,5.05
2019-03-01T07:46:52.342Z,4.22
2019-03-01T07:49:10.671Z,4.22
2019-03-01T07:51:36.883Z,4.42
2019-03-01T07:54:03.054Z,4.03
2019-03-01T07:56:29.228Z,3.90
2019-03-01T07:58:57.567Z,4.20
2019-03-01T08:01:25.682Z,4.17
2019-03-01T08:03:53.134Z,4.00
2019-03-01T08:06:19.157Z,4.10
2019-03-01T08:08:45.333Z,4.40
2019-03-01T08:11:11.514Z,4.33
2019-03-01T08:13:37.764Z,3.80
2019-03-01T08:16:03.936Z,5.53
2019-03-01T08:18:30.105Z,3.83
2019-03-01T08:20:56.371Z,4.33
2019-03-01T08:23:22.557Z,4.45
2019-03-01T08:25:48.728Z,4.45
2019-03-01T08:28:14.929Z,4.30
2019-03-01T08:30:42.575Z,3.72
2019-03-01T08:33:09.008Z,4.17
2019-03-01T08:35:35.206Z,4.45
2019-03-01T08:38:01.369Z,4.03
2019-03-01T08:40:27.549Z,4.28
2019-03-01T08:42:54.771Z,5.03
2019-03-01T08:45:20.940Z,3.52
2019-03-01T08:47:48.752Z,4.15
2019-03-01T08:50:15.025Z,4.30
2019-03-01T08:52:41.294Z,4.60
2019-03-01T08:55:07.491Z,3.90
2019-03-01T08:57:33.672Z,4.33
2019-03-01T08:59:59.846Z,4.45
2019-03-01T09:02:26.144Z,4.03
2019-03-01T09:04:52.307Z,4.37
2019-03-01T09:07:18.480Z,4.53
2019-03-01T09:09:44.686Z,4.33
2019-03-01T09:12:10.921Z,4.35
2019-03-01T09:14:37.102Z,4.37
2019-03-01T09:17:03.295Z,4.62
2019-03-01T09:19:29.472Z,4.35
2019-03-01T09:21:55.740Z,4.33
2019-03-01T09:24:21.929Z,4.37
2019-03-01T09:26:48.101Z,4.50
2019-03-01T09:29:18.452Z,3.80
2019-03-01T09:31:42.256Z,4.05
2019-03-01T09:34:08.425Z,4.40
2019-03-01T09:36:34.598Z,4.53
2019-03-01T09:39:00.806Z,4.78
2019-03-01T09:41:26.984Z,4.80
2019-03-01T09:43:53.143Z,4.55
2019-03-01T09:46:20.820Z,3.60
2019-03-01T09:48:49.406Z,4.62
2019-03-01T09:51:15.996Z,4.90
2019-03-01T09:53:42.289Z,4.72
2019-03-01T09:56:09.712Z,4.30
2019-03-01T09:58:36.367Z,4.12
2019-03-01T10:01:02.557Z,3.70
2019-03-01T10:03:28.733Z,4.22
2019-03-01T10:05:54.923Z,4.75
2019-03-01T10:08:21.126Z,4.45
2019-03-01T10:10:47.317Z,4.70
2019-03-01T10:13:13.520Z,4.10
2019-03-01T10:15:39.711Z,4.17
2019-03-01T10:18:05.875Z,4.53
2019-03-01T10:20:32.051Z,3.65
2019-03-01T10:22:58.264Z,4.10
2019-03-01T10:25:24.440Z,4.20
2019-03-01T10:27:50.615Z,3.62
2019-03-01T10:30:17.274Z,4.60
2019-03-01T10:32:43.455Z,5.25
2019-03-01T10:35:09.621Z,3.95
2019-03-01T10:37:35.812Z,4.60
2019-03-01T10:40:01.989Z,4.53
2019-03-01T10:42:28.167Z,4.33
2019-03-01T10:44:54.356Z,4.92
2019-03-01T10:47:20.539Z,3.80
2019-03-01T10:49:46.718Z,4.45
2019-03-01T10:52:12.913Z,3.00
2019-03-01T10:54:39.085Z,4.12
2019-03-01T10:57:05.247Z,4.00
2019-03-01T10:59:31.477Z,4.00
2019-03-01T11:01:57.705Z,4.22
2019-03-01T11:04:23.874Z,4.08
2019-03-01T11:06:50.068Z,3.87
2019-03-01T11:09:16.248Z,4.05
2019-03-01T11:11:42.512Z,3.42
2019-03-01T11:14:08.708Z,3.80
2019-03-01T11:16:34.883Z,4.12
2019-03-01T11:19:01.050Z,3.75
2019-03-01T11:21:27.256Z,3.42
2019-03-01T11:23:53.432Z,3.77
2019-03-01T11:26:19.607Z,3.60
2019-03-01T11:28:45.808Z,3.95
2019-03-01T11:31:12.042Z,3.83
2019-03-01T11:33:38.219Z,4.58
2019-03-01T11:36:04.411Z,3.55
2019-03-01T11:38:30.571Z,4.03
2019-03-01T11:40:56.764Z,4.67
2019-03-01T11:43:22.928Z,3.85
2019-03-01T11:45:49.102Z,4.03
2019-03-01T11:48:15.315Z,3.90
2019-03-01T11:50:41.483Z,3.27
2019-03-01T11:53:07.691Z,3.02
2019-03-01T11:55:33.890Z,3.70
2019-03-01T11:58:00.058Z,3.62
2019-03-01T12:00:26.225Z,3.58
2019-03-01T12:02:52.443Z,3.37
2019-03-01T12:05:18.620Z,3.33
2019-03-01T12:07:44.792Z,3.52
2019-03-01T12:10:12.420Z,3.12
2019-03-01T12:12:38.755Z,3.47
2019-03-01T12:15:05.028Z,4.22
2019-03-01T12:17:31.227Z,4.40
2019-03-01T12:19:57.388Z,3.00
2019-03-01T12:22:23.567Z,3.98
2019-03-01T12:24:49.767Z,4.37
2019-03-01T12:27:15.942Z,3.52
2019-03-01T12:29:42.118Z,3.45
2019-03-01T12:32:08.319Z,3.87
2019-03-01T12:34:34.496Z,3.30
2019-03-01T12:37:00.671Z,3.58
2019-03-01T12:39:26.867Z,4.33
2019-03-01T12:41:53.099Z,3.83
2019-03-01T12:44:19.263Z,3.55
2019-03-01T12:46:45.458Z,3.52
2019-03-01T12:49:11.634Z,4.22
2019-03-01T12:51:37.812Z,3.10
2019-03-01T12:54:04.017Z,3.70
2019-03-01T12:56:30.192Z,3.60
2019-03-01T12:58:56.378Z,4.15
2019-03-01T13:01:22.664Z,3.50
2019-03-01T13:03:48.827Z,3.77
2019-03-01T13:06:14.999Z,3.87
2019-03-01T13:08:41.192Z,3.98
2019-03-01T13:11:07.443Z,4.17
2019-03-01T13:13:34.682Z,3.85
2019-03-01T13:16:01.543Z,3.47
2019-03-01T13:18:27.713Z,4.25
2019-03-01T13:20:53.886Z,3.62
2019-03-01T13:23:20.069Z,4.72
2019-03-01T13:25:46.267Z,3.87
2019-03-01T13:28:13.438Z,3.70
2019-03-01T13:30:39.708Z,3.83
2019-03-01T13:33:05.893Z,4.25
2019-03-01T13:35:32.099Z,4.65
2019-03-01T13:37:58.283Z,3.90
2019-03-01T13:40:25.451Z,4.10
2019-03-01T13:42:52.139Z,3.87
2019-03-01T13:45:18.384Z,3.72
2019-03-01T13:47:44.884Z,4.12
2019-03-01T13:50:11.211Z,3.83
2019-03-01T13:52:37.435Z,4.28
2019-03-01T13:55:03.615Z,3.80
2019-03-01T13:57:29.810Z,3.92
2019-03-01T13:59:55.993Z,4.08
2019-03-01T14:02:22.248Z,4.72
2019-03-01T14:04:48.447Z,4.20
2019-03-01T14:07:14.628Z,4.30
2019-03-01T14:09:40.795Z,4.03
2019-03-01T14:12:07.000Z,3.83
2019-03-01T14:14:33.163Z,4.35
2019-03-01T14:16:59.339Z,3.95
2019-03-01T14:19:25.550Z,3.85
2019-03-01T14:21:51.778Z,4.03
2019-03-01T14:24:17.952Z,4.55
2019-03-01T14:26:44.151Z,4.08
2019-03-01T14:29:12.807Z,4.55
2019-03-01T14:31:39.820Z,3.85
2019-03-01T14:34:08.304Z,3.70
2019-03-01T14:36:34.042Z,4.55
2019-03-01T14:39:00.208Z,4.45
2019-03-01T14:41:26.412Z,4.47
2019-03-01T14:43:52.587Z,4.62
2019-03-01T14:46:20.737Z,5.08
2019-03-01T14:48:46.999Z,4.58
2019-03-01T14:51:13.287Z,4.83
2019-03-01T14:53:39.469Z,4.28
2019-03-01T14:56:05.674Z,4.60
2019-03-01T14:58:31.842Z,4.90
2019-03-01T15:00:58.896Z,4.60
2019-03-01T15:03:25.279Z,4.97
2019-03-01T15:05:51.523Z,5.35
2019-03-01T15:08:17.708Z,5.70
2019-03-01T15:10:43.976Z,5.15
2019-03-01T15:13:10.139Z,4.55
2019-03-01T15:15:36.319Z,4.80
2019-03-01T15:18:02.519Z,4.87
2019-03-01T15:20:28.819Z,5.00
2019-03-01T15:22:54.986Z,5.50
2019-03-01T15:25:21.178Z,5.25
2019-03-01T15:27:47.356Z,6.12
2019-03-01T15:30:13.520Z,5.90
2019-03-01T15:32:39.712Z,6.58
2019-03-01T15:35:05.889Z,6.47
2019-03-01T15:37:34.973Z,5.75
2019-03-01T15:39:59.973Z,7.87
2019-03-01T15:42:26.141Z,7.40
2019-03-01T15:44:52.313Z,6.50
2019-03-01T15:47:18.513Z,5.83
2019-03-01T15:49:44.690Z,7.20
2019-03-01T15:52:13.929Z,5.90
2019-03-01T15:54:38.789Z,7.08
2019-03-01T15:57:04.965Z,6.15
2019-03-01T15:59:31.146Z,6.35
2019-03-01T16:01:57.364Z,6.58
2019-03-01T16:04:23.530Z,6.30
2019-03-01T16:06:55.255Z,6.28
2019-03-01T16:09:17.618Z,7.37
2019-03-01T16:11:43.911Z,5.83
2019-03-01T16:14:10.088Z,6.30
2019-03-01T16:16:36.295Z,6.10
2019-03-01T16:19:02.473Z,6.72
2019-03-01T16:21:28.692Z,7.08
2019-03-01T16:23:54.893Z,6.60
2019-03-01T16:26:29.663Z,7.00
2019-03-01T16:28:48.959Z,7.10
2019-03-01T16:31:15.281Z,8.08
2019-03-01T16:33:41.449Z,5.85
2019-03-01T16:36:07.624Z,6.42
2019-03-01T16:38:40.649Z,7.10
2019-03-01T16:41:07.468Z,6.90
2019-03-01T16:43:29.759Z,6.55
2019-03-01T16:45:56.387Z,7.92
2019-03-01T16:48:23.367Z,8.08
2019-03-01T16:50:49.590Z,8.50
2019-03-01T16:53:15.802Z,9.20
2019-03-01T16:55:41.959Z,9.95
2019-03-01T16:58:08.133Z,8.35
2019-03-01T17:00:34.332Z,9.43
2019-03-01T17:03:04.471Z,9.43
2019-03-01T17:05:30.671Z,10.68
2019-03-01T17:07:59.774Z,9.30
2019-03-01T17:10:26.510Z,8.65
2019-03-01T17:12:52.919Z,7.97
2019-03-01T17:15:19.132Z,8.58
2019-03-01T17:17:45.313Z,7.65
2019-03-01T17:20:11.480Z,8.33
2019-03-01T17:22:37.677Z,8.10
2019-03-01T17:25:03.851Z,7.12
2019-03-01T17:27:30.033Z,8.85
2019-03-01T17:29:56.238Z,9.30
2019-03-01T17:32:22.419Z,8.00
2019-03-01T17:34:48.588Z,8.70
2019-03-01T17:37:14.815Z,8.15
2019-03-01T17:39:40.985Z,7.85
2019-03-01T17:42:07.189Z,7.72
2019-03-01T17:44:33.383Z,7.30
2019-03-01T17:46:59.561Z,7.85
2019-03-01T17:49:25.729Z,7.28
2019-03-01T17:51:53.390Z,6.97
2019-03-01T17:54:22.299Z,6.97
2019-03-01T17:56:47.804Z,6.50
2019-03-01T17:59:14.007Z,6.08
2019-03-01T18:01:40.388Z,6.72
2019-03-01T18:04:06.520Z,6.78
2019-03-01T18:06:32.721Z,6.25
2019-03-01T18:08:58.880Z,7.17
2019-03-01T18:11:26.132Z,8.23
2019-03-01T18:13:52.466Z,6.35
2019-03-01T18:16:18.650Z,5.28
2019-03-01T18:18:48.821Z,6.33
2019-03-01T18:21:13.120Z,5.72
2019-03-01T18:23:40.175Z,6.55
2019-03-01T18:26:06.360Z,5.78
2019-03-01T18:28:32.553Z,6.08
2019-03-01T18:30:58.813Z,5.87
2019-03-01T18:33:24.983Z,5.97
2019-03-01T18:35:52.501Z,5.85
2019-03-01T18:38:19.139Z,6.03
2019-03-01T18:40:48.521Z,4.90
2019-03-01T18:43:13.814Z,6.00
2019-03-01T18:45:41.980Z,6.00
2019-03-01T18:48:08.771Z,5.95
2019-03-01T18:50:36.166Z,4.92
2019-03-01T18:53:03.719Z,6.60
2019-03-01T18:55:30.311Z,5.70
2019-03-01T18:57:56.497Z,6.12
2019-03-01T19:00:22.676Z,5.58
2019-03-01T19:02:48.860Z,5.30
2019-03-01T19:05:15.052Z,5.03
2019-03-01T19:07:41.244Z,5.67
2019-03-01T19:10:07.494Z,5.20
2019-03-01T19:12:33.697Z,5.47
2019-03-01T19:14:59.874Z,5.22
2019-03-01T19:17:26.041Z,5.20
2019-03-01T19:19:52.231Z,4.65
2019-03-01T19:22:18.398Z,5.72
2019-03-01T19:24:46.784Z,6.05
2019-03-01T19:27:15.605Z,6.10
2019-03-01T19:29:40.405Z,7.72
2019-03-01T19:32:06.595Z,8.05
2019-03-01T19:34:32.800Z,8.33
2019-03-01T19:36:58.978Z,7.42
2019-03-01T19:39:25.179Z,6.97
2019-03-01T19:41:54.635Z,7.60
2019-03-01T19:44:19.277Z,7.65
2019-03-01T19:46:47.727Z,6.12
2019-03-01T19:49:13.923Z,6.15
2019-03-01T19:51:40.154Z,7.28
2019-03-01T19:54:08.330Z,6.87
2019-03-01T19:56:34.256Z,5.95
2019-03-01T19:59:00.437Z,6.58
2019-03-01T20:01:26.713Z,6.92
2019-03-01T20:03:52.913Z,6.55
2019-03-01T20:06:19.740Z,5.45
2019-03-01T20:08:45.905Z,7.05
2019-03-01T20:11:12.172Z,6.92
2019-03-01T20:13:38.342Z,6.90
2019-03-01T20:16:04.515Z,6.35
2019-03-01T20:18:30.721Z,7.50
2019-03-01T20:20:56.956Z,8.98
2019-03-01T20:23:23.195Z,7.17
2019-03-01T20:25:50.959Z,23.12
2019-03-01T20:28:17.302Z,13.75
2019-03-01T20:30:43.507Z,8.48
2019-03-01T20:33:09.708Z,8.80
2019-03-01T20:35:35.879Z,9.38
2019-03-01T20:38:04.373Z,14.83
2019-03-01T20:40:29.997Z,8.65
2019-03-01T20:43:00.464Z,8.95
2019-03-01T20:45:26.026Z,8.30
2019-03-01T20:47:53.486Z,8.45
2019-03-01T20:50:20.104Z,6.92
2019-03-01T20:52:46.272Z,6.80
2019-03-01T20:55:12.472Z,7.87
2019-03-01T20:57:38.645Z,8.15
2019-03-01T21:00:04.914Z,6.72
2019-03-01T21:02:31.112Z,5.78
2019-03-01T21:04:57.282Z,6.75
2019-03-01T21:07:23.453Z,6.83
2019-03-01T21:09:49.664Z,6.87
2019-03-01T21:12:15.838Z,7.10
2019-03-01T21:14:42.004Z,7.20
2019-03-01T21:17:08.199Z,6.92
2019-03-01T21:19:34.369Z,6.40
2019-03-01T21:22:01.569Z,6.30
2019-03-01T21:24:28.475Z,6.40
2019-03-01T21:26:54.640Z,5.70
2019-03-01T21:29:20.824Z,6.95
2019-03-01T21:31:47.025Z,6.62
2019-03-01T21:34:14.886Z,5.62
2019-03-01T21:36:41.305Z,6.03
2019-03-01T21:39:07.506Z,5.47
2019-03-01T21:41:33.684Z,5.37
2019-03-01T21:43:59.856Z,5.47
2019-03-01T21:46:26.064Z,5.90
2019-03-01T21:48:52.246Z,7.50
2019-03-01T21:51:18.790Z,6.78
2019-03-01T21:53:46.206Z,6.15
2019-03-01T21:56:12.377Z,6.92
2019-03-01T21:58:41.844Z,6.00
2019-03-01T22:01:06.962Z,5.45
2019-03-01T22:03:33.280Z,6.22
2019-03-01T22:05:59.455Z,5.90
2019-03-01T22:08:25.655Z,6.35
2019-03-01T22:10:51.918Z,6.60
2019-03-01T22:13:18.086Z,6.00
2019-03-01T22:15:44.300Z,5.35
2019-03-01T22:18:10.482Z,6.92
2019-03-01T22:20:36.731Z,4.85
2019-03-01T22:23:02.939Z,5.47
2019-03-01T22:25:29.112Z,5.05
2019-03-01T22:27:57.631Z,4.65
2019-03-01T22:30:23.819Z,4.95
2019-03-01T22:32:50.068Z,5.33
2019-03-01T22:35:16.237Z,5.80
2019-03-01T22:37:42.436Z,6.10
2019-03-01T22:40:08.611Z,5.67
2019-03-01T22:42:34.783Z,5.50
2019-03-01T22:45:00.986Z,4.75
2019-03-01T22:47:27.158Z,6.10
2019-03-01T22:49:53.430Z,5.28
2019-03-01T22:52:19.627Z,5.72
2019-03-01T22:54:45.807Z,5.80
2019-03-01T22:57:11.980Z,4.87
2019-03-01T22:59:38.286Z,5.17
2019-03-01T23:02:07.980Z,4.72
2019-03-01T23:04:32.351Z,4.90
2019-03-01T23:06:58.529Z,4.78
2019-03-01T23:09:24.699Z,4.53
2019-03-01T23:11:50.892Z,5.55
2019-03-01T23:14:17.076Z,6.42
2019-03-01T23:16:43.282Z,5.58
2019-03-01T23:19:12.648Z,5.22
2019-03-01T23:21:37.581Z,5.80
2019-03-01T23:24:03.753Z,5.35
2019-03-01T23:26:29.952Z,5.12
2019-03-01T23:28:56.126Z,5.47
2019-03-01T23:31:22.330Z,5.10
2019-03-01T23:33:48.505Z,5.12
2019-03-01T23:36:14.671Z,4.92
2019-03-01T23:38:40.858Z,5.37
2019-03-01T23:41:07.760Z,5.12
2019-03-01T23:43:35.006Z,5.37
2019-03-01T23:46:01.204Z,5.85
2019-03-01T23:48:27.370Z,5.05
2019-03-01T23:50:53.645Z,4.95
2019-03-01T23:53:19.824Z,5.87
2019-03-01T23:55:45.996Z,5.33
2019-03-01T23:58:12.628Z,5.08
